Boston, Massachusetts
Traffic Map
Current Weather Conditions
Boston, Massachusetts
Broken Clouds
Broken Clouds
13°
Feels Like: 13°
Wind Chill: 13° Ceiling: 10000
Heat Index: 13° Visibility: 10mi
Dew Point: 11° Wind: 8mph
Humidity: 89% Direction: 150° (SSE)
Pressure: 29.93in Gusts: 0mph
Raw Report DataKBOS 280454Z 15007KT 10SM FEW075 BKN100 13/11 A2993 RMK AO2 SLP134 T01280111 401610117
Traffic Incident Summary
Active as of:
Severity:
Category:
InformationThere was an issue retrieving the traffic information for this location. Please try a different location or try again shortly.
Advertisements
Track Severe Weather on mobile